100LL.CA
Aviation Fuel Pricing for Canadians
Please upgrade your browser - Tested with IE9, FireFox, Chrome, Safari

Fuel Airports Other Help
Prices Economy Info List METAR/TAF Kneeboard Help

Reference Airport: PRINCE ALBERT (GLASS FIELD), SK
N 53 12 52  W 105 40 23
Provinces to show:

CYPA PRINCE ALBERT (GLASS FIELD), SK
WEATHER
METARCYPA 131900Z 34015G22KT 15SM BKN080 BKN270 14/M04 A2971 RMK ACC5CI2 SH S SLP080 DENSITY ALT 1900FT
TAFTAF CYPA 131840Z 1319/1407 30010G20KT P6SM FEW100 SCT280 FM132100 30015G25KT P6SM SCT060 BKN120 TEMPO 1321/1401 P6SM -SHRA BKN060 BKN120 FM140100 30015G25KT P6SM FEW080 BECMG 1402/1404 26005KT RMK NXT FCST BY 140100Z
OTHER SITES

FlightAware

FltPlan

Google Maps

SkyVector
FUEL
FBO 100LL
member
100LL
public
JETA MOGAS
Snowbird Petroleum (2018-04-25)2.0001.630
  Note: Temporarily has no fuel as of report date.
Canada Flight Supplement - CYPA
(opens in new tab/window)


Please Send Updates!

Desktop Version ]  [ Mobile Version ]  [ Disclaimer ]